FW2834 Weather Reports


Display with metric or nautical units.
time (UTC)temp
F
wind
direction
speed
MPH
gust
MPH
rain 1hr
in
rain 24hr
in
rain mn
in
humidity
%
barometer
mb
20260906025021 70 136 0.0 0.0 0.00 0.47 0.47 82 1011.2
20260906024520 70 136 0.0 0.0 0.00 0.47 0.47 82 1011.2
20260906024020 70 136 0.0 0.0 0.00 0.47 0.47 82 1011.2
20260906023520 70 136 0.0 0.0 0.00 0.47 0.47 82 1011.5
20260906023020 70 136 0.0 0.0 0.00 0.47 0.47 81 1011.2
20260906022520 70 136 0.0 0.0 0.00 0.47 0.47 81 1011.1
20260906022020 70 136 0.0 1.0 0.00 0.47 0.47 81 1011.1
20260906021620 70 136 0.0 1.0 0.00 0.47 0.47 81 1011.2
20260906021022 70 136 0.0 1.0 0.00 0.47 0.47 80 1011.4
20260906020519 70 136 0.0 1.0 0.00 0.47 0.47 80 1011.5
20260906020018 70 136 0.0 1.0 0.00 0.47 0.47 80 1011.5
20260906015518 70 136 0.0 1.0 0.00 0.47 0.47 80 1011.4
20260906015019 70 136 0.0 0.0 0.00 0.47 0.47 79 1011.7
20260906014524 70 136 0.0 1.0 0.00 0.47 0.47 79 1011.4
20260906014021 70 136 0.0 1.0 0.00 0.47 0.47 78 1011.7
20260906013519 70 136 0.0 1.0 0.01 0.47 0.47 78 1011.5
20260906013018 70 136 0.0 1.0 0.01 0.47 0.47 77 1011.4
20260906012517 70 136 0.0 0.0 0.01 0.47 0.47 77 1011.7
20260906012020 70 136 0.0 0.0 0.01 0.47 0.47 76 1011.9
20260906011517 70 136 0.0 0.0 0.01 0.47 0.47 76 1011.5
20260906011017 70 136 0.0 0.0 0.01 0.47 0.47 75 1011.2
20260906010616 70 136 0.0 0.0 0.01 0.47 0.47 75 1011.1
20260906010016 70 136 0.0 1.0 0.01 0.47 0.47 75 1010.7
20260906005516 71 136 0.0 1.0 0.01 0.47 0.47 75 1010.7
20260906005016 71 136 0.0 1.0 0.02 0.47 0.47 74 1010.9
20260906004516 71 136 0.0 1.0 0.08 0.47 0.47 74 1010.5
20260906004016 71 135 0.0 1.0 0.24 0.47 0.47 73 1010.3
20260906003516 71 136 0.0 0.0 0.37 0.46 0.46 73 1010.3
20260906003016 71 136 0.0 1.0 0.46 0.46 0.46 73 1010.2
20260906002515 72 136 0.0 1.0 0.46 0.46 0.46 73 1010.2
20260906002016 72 136 0.0 1.0 0.46 0.46 0.46 72 1010.3
20260906001515 72 135 0.0 1.0 0.46 0.46 0.46 72 1010.2
20260906001020 73 136 0.0 1.0 0.46 0.46 0.46 71 1010.2
20260906000515 73 136 0.0 0.0 0.46 0.46 0.46 71 1010.1
20260906000015 73 136 0.0 1.0 0.46 0.46 0.46 70 1010.2
20260905235514 74 136 0.0 2.0 0.46 0.46 0.46 69 1010.3
20260905235016 75 134 0.0 3.0 0.45 0.45 0.45 68 1010.5
20260905234514 76 190 0.0 4.0 0.39 0.39 0.39 66 1010.8
20260905234015 78 303 1.0 6.0 0.23 0.23 0.23 65 1011.0
20260905233513 80 323 2.0 12.0 0.09 0.09 0.09 63 1011.2
20260905233017 82 313 2.0 12.0 0.00 0.00 0.00 63 1011.3
20260905232513 83 93 0.0 0.0 0.00 0.00 0.00 67 1010.2
20260905232013 83 94 0.0 0.0 0.00 0.00 0.00 66 1009.8
20260905231512 84 94 0.0 0.0 0.00 0.00 0.00 66 1009.9
20260905231012 84 94 0.0 0.0 0.00 0.00 0.00 65 1009.8
20260905230512 84 94 0.0 0.0 0.00 0.00 0.00 65 1009.9
20260905230012 84 94 0.0 0.0 0.00 0.00 0.00 65 1009.5
20260905225512 85 94 0.0 0.0 0.00 0.00 0.00 65 1009.4
20260905225011 85 94 0.0 0.0 0.00 0.00 0.00 64 1009.6
20260905224512 85 94 0.0 0.0 0.00 0.00 0.00 64 1009.7
20260905224014 85 94 0.0 0.0 0.00 0.00 0.00 63 1009.6
20260905223511 86 94 0.0 0.0 0.00 0.00 0.00 63 1009.7
20260905223011 86 94 0.0 0.0 0.00 0.00 0.00 62 1009.7
20260905222511 86 94 0.0 0.0 0.00 0.00 0.00 61 1009.5
20260905222010 86 94 0.0 0.0 0.00 0.00 0.00 61 1009.6
20260905221510 86 94 0.0 0.0 0.00 0.00 0.00 61 1009.7
20260905221011 86 94 0.0 0.0 0.00 0.00 0.00 61 1009.5
20260905220511 86 94 0.0 2.0 0.00 0.00 0.00 60 1009.5
20260905220013 86 94 0.0 2.0 0.00 0.01 0.00 60 1009.3
20260905215511 86 92 0.0 2.0 0.00 0.01 0.00 61 1009.3
20260905215009 86 92 0.0 1.0 0.00 0.01 0.00 60 1009.3
20260905214509 86 92 0.0 1.0 0.00 0.01 0.00 59 1009.2
20260905214009 86 92 0.0 2.0 0.00 0.01 0.00 59 1009.2
20260905213509 86 92 0.0 2.0 0.00 0.01 0.00 59 1009.2
20260905213010 86 92 0.0 0.0 0.00 0.01 0.00 59 1009.3
20260905212508 86 92 0.0 0.0 0.00 0.01 0.00 59 1009.5
20260905212007 86 92 0.0 1.0 0.00 0.01 0.00 59 1009.4
20260905211506 86 92 0.0 1.0 0.00 0.01 0.00 59 1009.4
20260905211008 86 92 0.0 1.0 0.00 0.01 0.00 59 1009.5
20260905210505 86 92 0.0 2.0 0.00 0.01 0.00 59 1009.6
20260905210005 86 92 0.0 2.0 0.00 0.01 0.00 60 1009.6
20260905205504 86 92 0.0 2.0 0.00 0.01 0.00 60 1009.7
20260905205004 86 139 0.0 2.0 0.00 0.01 0.00 60 1009.7
20260905204503 86 139 0.0 2.0 0.00 0.01 0.00 60 1009.9
20260905204003 86 140 0.0 0.0 0.00 0.01 0.00 59 1009.9
20260905203502 86 140 0.0 3.0 0.00 0.01 0.00 58 1009.9
20260905203002 86 139 0.0 3.0 0.00 0.01 0.00 58 1010.0
20260905202505 86 61 0.0 1.0 0.00 0.01 0.00 57 1010.0
20260905202003 86 61 0.0 2.0 0.00 0.01 0.00 58 1010.0
20260905201501 87 61 0.0 2.0 0.00 0.01 0.00 57 1009.9
20260905201104 87 59 0.0 3.0 0.00 0.01 0.00 58 1010.1
20260905200602 87 58 0.0 3.0 0.00 0.01 0.00 58 1010.3
20260905200128 88 329 0.0 1.0 0.00 0.01 0.00 58 1010.2
20260905195601 88 329 0.0 2.0 0.00 0.01 0.00 58 1010.4
20260905195058 89 329 0.0 2.0 0.00 0.01 0.00 56 1010.5
20260905194557 89 327 0.0 1.0 0.00 0.01 0.00 52 1010.6
20260905194101 89 327 0.0 0.0 0.00 0.01 0.00 51 1010.5
20260905193557 89 327 0.0 0.0 0.00 0.01 0.00 51 1010.4
20260905193056 89 327 0.0 3.0 0.00 0.01 0.00 50 1010.5
20260905192559 90 327 0.0 3.0 0.00 0.01 0.00 52 1010.4
20260905192055 90 119 0.0 3.0 0.00 0.01 0.00 51 1010.5
20260905191555 89 281 0.0 3.0 0.00 0.01 0.00 51 1010.8
20260905191055 89 280 1.0 3.0 0.00 0.01 0.00 53 1010.7
20260905190555 89 280 0.0 1.0 0.00 0.01 0.00 53 1010.7
20260905190057 89 280 0.0 1.0 0.00 0.01 0.00 53 1010.9
20260905185554 89 281 0.0 1.0 0.00 0.01 0.00 50 1011.0
20260905185056 89 281 0.0 1.0 0.00 0.01 0.00 50 1011.0
20260905184555 90 281 0.0 1.0 0.00 0.01 0.00 52 1011.2
20260905184059 90 280 0.0 1.0 0.00 0.01 0.00 49 1011.2
20260905183554 90 280 0.0 2.0 0.00 0.01 0.00 49 1011.2
20260905183053 90 286 0.0 2.0 0.00 0.01 0.00 49 1011.2
20260905182553 90 283 0.0 2.0 0.00 0.01 0.00 51 1011.2
20260905182054 90 283 0.0 3.0 0.00 0.01 0.00 50 1011.2
20260905181551 90 118 1.0 3.0 0.00 0.01 0.00 50 1011.2
20260905181050 90 224 0.0 3.0 0.00 0.01 0.00 48 1011.3
20260905180549 89 323 0.0 3.0 0.00 0.01 0.00 48 1011.2
20260905180108 89 271 0.0 2.0 0.00 0.01 0.00 49 1011.1
20260905175547 89 292 0.0 2.0 0.00 0.01 0.00 49 1011.3
20260905175046 89 281 0.0 2.0 0.00 0.01 0.00 50 1011.2
20260905174545 89 285 0.0 2.0 0.00 0.01 0.00 51 1011.1
20260905174045 88 285 0.0 2.0 0.00 0.01 0.00 53 1011.1
20260905173543 88 281 0.0 1.0 0.00 0.01 0.00 51 1011.0
20260905173103 88 285 0.0 1.0 0.00 0.01 0.00 52 1011.1
20260905172542 88 281 0.0 3.0 0.00 0.01 0.00 52 1011.1
20260905172041 88 281 0.0 3.0 0.00 0.01 0.00 51 1011.3
20260905171551 87 294 0.0 2.0 0.00 0.01 0.00 51 1011.4
20260905171039 87 315 0.0 3.0 0.00 0.01 0.00 52 1011.5
20260905170539 87 312 0.0 2.0 0.00 0.01 0.00 52 1011.5
20260905170041 87 321 0.0 3.0 0.00 0.01 0.00 52 1011.7
20260905165539 87 119 0.0 3.0 0.00 0.01 0.00 54 1011.7
20260905165038 87 153 2.0 3.0 0.00 0.01 0.00 53 1011.8
20260905164543 87 196 0.0 3.0 0.00 0.01 0.00 54 1012.0
20260905164040 87 196 0.0 3.0 0.00 0.01 0.00 52 1012.0
20260905163537 87 175 0.0 3.0 0.00 0.01 0.00 51 1012.2
20260905163036 87 171 1.0 3.0 0.00 0.01 0.00 53 1012.1
20260905162535 86 126 0.0 3.0 0.00 0.01 0.00 52 1012.1
20260905162033 86 128 0.0 3.0 0.00 0.01 0.00 51 1012.1
20260905161532 86 128 0.0 3.0 0.00 0.01 0.00 51 1012.0
20260905161031 86 115 0.0 0.0 0.00 0.01 0.00 52 1012.1
20260905160529 85 115 0.0 0.0 0.00 0.01 0.00 55 1012.1
20260905160046 85 115 0.0 0.0 0.00 0.01 0.00 55 1012.1
20260905155531 85 121 0.0 0.0 0.00 0.01 0.00 56 1012.2
20260905155025 84 118 0.0 0.0 0.00 0.01 0.00 57 1012.1
20260905154524 84 120 0.0 0.0 0.00 0.01 0.00 58 1012.0
20260905154026 83 216 0.0 0.0 0.00 0.01 0.00 58 1011.9
20260905153522 83 346 0.0 0.0 0.00 0.01 0.00 59 1012.0
20260905153022 83 313 0.0 0.0 0.00 0.01 0.00 60 1011.9
20260905152519 82 326 0.0 0.0 0.00 0.01 0.00 61 1011.9
20260905152021 82 325 0.0 0.0 0.00 0.01 0.00 60 1012.0
20260905151515 82 322 0.0 0.0 0.00 0.01 0.00 61 1012.0
20260905151014 81 205 0.0 1.0 0.00 0.01 0.00 61 1011.9
20260905150512 81 141 0.0 3.0 0.00 0.01 0.00 62 1012.0
20260905150011 80 115 0.0 4.0 0.00 0.01 0.00 63 1012.0
20260905145513 80 113 0.0 4.0 0.00 0.01 0.00 62 1011.8
20260905145008 79 328 0.0 2.0 0.00 0.01 0.00 64 1011.8
20260905144507 79 123 0.0 4.0 0.00 0.01 0.00 66 1011.7
20260905144008 78 121 0.0 4.0 0.00 0.01 0.00 65 1011.8
20260905143504 78 105 1.0 3.0 0.00 0.01 0.00 66 1011.9
20260905143004 77 140 0.0 3.0 0.00 0.01 0.00 67 1011.7
20260905142501 77 128 0.0 5.0 0.00 0.01 0.00 67 1011.7
20260905142100 76 132 2.0 5.0 0.00 0.01 0.00 68 1011.8
20260905141558 75 84 0.0 3.0 0.00 0.01 0.00 69 1011.8
20260905141055 75 166 0.0 3.0 0.00 0.01 0.00 70 1012.0
20260905140554 74 306 0.0 6.0 0.00 0.01 0.00 72 1012.2
20260905140059 73 105 0.0 6.0 0.00 0.01 0.00 73 1012.5
20260905135551 72 109 0.0 2.0 0.00 0.01 0.00 74 1012.6
20260905135050 72 109 0.0 2.0 0.00 0.01 0.00 74 1012.6
20260905134558 71 25 0.0 1.0 0.00 0.01 0.00 75 1013.1
20260905134048 71 25 0.0 2.0 0.00 0.01 0.00 74 1013.4
20260905133548 71 26 0.0 2.0 0.00 0.01 0.00 74 1013.1
20260905133049 70 132 0.0 3.0 0.00 0.01 0.00 74 1013.3
20260905132547 70 136 0.0 2.0 0.00 0.01 0.00 75 1013.5
20260905132049 70 136 0.0 0.0 0.00 0.01 0.00 75 1013.5
20260905131544 70 136 0.0 0.0 0.00 0.01 0.00 75 1013.6
20260905131044 70 136 0.0 0.0 0.00 0.01 0.00 75 1013.6
20260905130545 70 136 0.0 1.0 0.00 0.01 0.00 75 1013.6
20260905130044 69 136 0.0 1.0 0.00 0.01 0.00 75 1013.4
20260905125543 69 136 0.0 0.0 0.00 0.01 0.00 75 1013.5
20260905125043 69 136 0.0 1.0 0.00 0.01 0.00 75 1013.3
20260905124547 69 136 0.0 1.0 0.00 0.01 0.00 75 1013.3
20260905124042 69 136 0.0 2.0 0.00 0.01 0.00 75 1013.3
20260905123542 69 136 0.0 2.0 0.00 0.01 0.00 75 1013.2
20260905123042 69 137 0.0 0.0 0.00 0.01 0.00 75 1013.4
20260905122541 69 137 0.0 0.0 0.00 0.01 0.00 74 1013.2
20260905122041 69 137 0.0 0.0 0.00 0.01 0.00 74 1013.2
20260905121544 69 137 0.0 0.0 0.00 0.01 0.00 74 1013.3
20260905121041 69 137 0.0 2.0 0.00 0.01 0.00 74 1013.1
20260905120540 69 137 0.0 2.0 0.00 0.01 0.00 74 1013.2
20260905120052 69 140 0.0 2.0 0.00 0.01 0.00 74 1013.3
20260905115537 69 140 0.0 2.0 0.00 0.01 0.00 74 1013.2
20260905115037 69 138 0.0 2.0 0.00 0.01 0.00 74 1013.3
20260905114546 69 138 0.0 2.0 0.00 0.01 0.00 74 1013.2
20260905114035 69 142 0.0 2.0 0.00 0.01 0.00 74 1013.2
20260905113538 69 153 0.0 4.0 0.00 0.01 0.00 74 1013.3
20260905113036 69 120 0.0 4.0 0.00 0.01 0.00 74 1013.3
20260905112534 69 98 0.0 3.0 0.00 0.01 0.00 74 1013.4
20260905112032 69 97 0.0 3.0 0.00 0.01 0.00 74 1013.5
20260905111602 69 71 0.0 3.0 0.00 0.01 0.00 73 1013.4
20260905111032 69 117 0.0 3.0 0.00 0.01 0.00 73 1013.7
20260905110531 69 219 0.0 4.0 0.00 0.01 0.00 73 1013.6
20260905110032 69 105 0.0 4.0 0.00 0.01 0.00 73 1013.8
20260905105532 70 306 0.0 4.0 0.00 0.01 0.00 74 1013.9
20260905105030 70 309 0.0 7.0 0.00 0.01 0.00 74 1013.7
20260905104530 70 316 2.0 5.0 0.00 0.01 0.00 74 1013.6
20260905104031 70 90 2.0 5.0 0.00 0.01 0.00 75 1013.7
20260905103529 70 265 1.0 9.0 0.00 0.01 0.00 76 1013.7
20260905103034 70 275 3.0 12.0 0.00 0.01 0.00 77 1013.6
20260905102528 70 254 2.0 12.0 0.00 0.01 0.00 79 1013.6
20260905102026 70 133 2.0 5.0 0.00 0.01 0.00 81 1013.3
20260905101527 71 156 1.0 12.0 0.00 0.01 0.00 81 1013.1
20260905101027 71 360 1.0 12.0 0.00 0.01 0.00 81 1013.4
20260905100523 71 317 2.0 6.0 0.00 0.01 0.00 82 1013.2
20260905100022 71 165 0.0 0.0 0.00 0.01 0.00 81 1012.2
20260905095521 71 165 0.0 0.0 0.00 0.01 0.00 81 1011.4
20260905095024 71 165 0.0 0.0 0.00 0.01 0.00 81 1011.5
20260905094521 71 165 0.0 0.0 0.00 0.01 0.00 80 1011.3
20260905094020 71 165 0.0 0.0 0.00 0.01 0.00 80 1011.1
20260905093522 71 165 0.0 0.0 0.00 0.01 0.00 80 1011.2
20260905093123 71 165 0.0 0.0 0.00 0.01 0.00 80 1011.2
20260905092522 71 165 0.0 0.0 0.00 0.01 0.00 80 1011.2
20260905092019 71 165 0.0 0.0 0.00 0.01 0.00 80 1011.2
20260905091518 71 165 0.0 0.0 0.00 0.01 0.00 80 1011.2
20260905091018 71 165 0.0 0.0 0.00 0.01 0.00 80 1011.1
20260905090517 71 165 0.0 0.0 0.00 0.01 0.00 80 1011.1
20260905090018 71 165 0.0 0.0 0.00 0.01 0.00 80 1011.1
20260905085518 71 165 0.0 0.0 0.00 0.01 0.00 80 1011.0
20260905085018 71 165 0.0 0.0 0.00 0.01 0.00 80 1011.1
20260905084516 71 165 0.0 0.0 0.00 0.01 0.00 80 1011.1
20260905084016 71 165 0.0 0.0 0.00 0.01 0.00 80 1011.2
20260905083519 71 165 0.0 0.0 0.00 0.01 0.00 80 1011.2
20260905083015 71 165 0.0 0.0 0.00 0.01 0.00 80 1011.2
20260905082515 71 165 0.0 0.0 0.00 0.01 0.00 80 1011.3
20260905082015 71 165 0.0 0.0 0.00 0.01 0.00 80 1011.3
20260905081514 71 165 0.0 0.0 0.00 0.01 0.00 80 1011.3
20260905081015 71 165 0.0 0.0 0.00 0.01 0.00 80 1011.3
20260905080513 72 165 0.0 0.0 0.00 0.01 0.00 80 1011.2
20260905080022 71 165 0.0 0.0 0.00 0.01 0.00 79 1011.1
20260905075514 72 165 0.0 0.0 0.00 0.01 0.00 79 1011.0
20260905075015 72 165 0.0 0.0 0.00 0.01 0.00 79 1010.9
20260905074513 72 165 0.0 0.0 0.00 0.01 0.00 79 1010.9
20260905074012 72 165 0.0 0.0 0.00 0.01 0.00 79 1010.8
20260905073511 72 165 0.0 0.0 0.00 0.01 0.00 79 1010.7
20260905073011 72 165 0.0 0.0 0.00 0.01 0.00 79 1010.6
20260905072511 72 165 0.0 0.0 0.00 0.01 0.00 79 1010.7
20260905072010 72 165 0.0 0.0 0.00 0.01 0.00 79 1010.6
20260905071511 72 165 0.0 0.0 0.00 0.01 0.00 79 1010.6
20260905071014 72 165 0.0 0.0 0.00 0.01 0.00 79 1010.6
20260905070509 72 165 0.0 0.0 0.00 0.01 0.00 79 1010.5
20260905070022 72 165 0.0 0.0 0.00 0.01 0.00 79 1010.5
20260905065508 72 165 0.0 0.0 0.00 0.01 0.00 79 1010.6
20260905065010 72 165 0.0 0.0 0.00 0.01 0.00 78 1010.7
20260905064518 72 165 0.0 0.0 0.00 0.01 0.00 78 1010.9
20260905064005 72 165 0.0 0.0 0.00 0.01 0.00 78 1011.0
20260905063504 72 165 0.0 0.0 0.00 0.01 0.00 78 1011.2
20260905063004 72 165 0.0 0.0 0.00 0.01 0.00 78 1011.1
20260905062506 72 165 0.0 0.0 0.00 0.01 0.00 78 1011.1
20260905062005 72 165 0.0 0.0 0.00 0.01 0.00 78 1011.3
20260905061502 72 165 0.0 0.0 0.00 0.01 0.00 78 1011.4
20260905061001 72 165 0.0 0.0 0.00 0.01 0.00 78 1011.4
20260905060501 72 165 0.0 0.0 0.00 0.01 0.00 78 1011.5
20260905060001 72 165 0.0 0.0 0.00 0.01 0.00 78 1011.4
20260905055603 72 165 0.0 0.0 0.00 0.01 0.00 78 1011.5
20260905055059 72 165 0.0 0.0 0.00 0.01 0.00 77 1011.6
20260905054601 72 165 0.0 0.0 0.00 0.01 0.00 77 1011.7
20260905054100 72 165 0.0 0.0 0.00 0.01 0.00 77 1011.8
20260905053557 72 165 0.0 0.0 0.00 0.01 0.00 77 1011.9
20260905053100 72 165 0.0 0.0 0.00 0.01 0.00 77 1011.9
20260905052556 72 165 0.0 0.0 0.00 0.01 0.00 77 1011.9
20260905052055 72 165 0.0 0.0 0.00 0.01 0.00 77 1012.0
20260905051555 73 165 0.0 0.0 0.00 0.01 0.00 77 1012.1
20260905051054 73 165 0.0 0.0 0.00 0.01 0.00 77 1012.0
20260905050555 73 165 0.0 0.0 0.00 0.01 0.00 77 1012.1
20260905050057 73 165 0.0 0.0 0.00 0.01 0.00 77 1012.3
20260905045552 73 165 0.0 0.0 0.00 0.01 0.00 77 1012.3
20260905045052 73 165 0.0 0.0 0.00 0.01 0.00 77 1012.2
20260905044551 73 165 0.0 0.0 0.00 0.01 0.00 77 1012.2
20260905044051 73 165 0.0 1.0 0.00 0.01 0.00 77 1012.3
20260905043551 73 165 0.0 1.0 0.00 0.01 0.00 77 1012.2
20260905043051 73 165 0.0 0.0 0.00 0.01 0.00 76 1012.2
20260905042549 73 165 0.0 0.0 0.00 0.01 0.00 76 1012.2
20260905042049 73 165 0.0 0.0 0.00 0.01 0.00 76 1012.2
20260905041556 73 165 0.0 0.0 0.00 0.01 0.00 76 1012.2
20260905041048 73 165 0.0 0.0 0.00 0.01 0.00 76 1012.3
20260905040547 73 165 0.0 0.0 0.00 0.01 0.00 76 1012.2
20260905040046 73 165 0.0 0.0 0.00 0.01 0.00 76 1012.1
20260905035548 73 165 0.0 0.0 0.00 0.01 0.01 75 1012.2
20260905035046 73 165 0.0 0.0 0.00 0.01 0.01 75 1012.2
20260905034546 73 165 0.0 0.0 0.00 0.01 0.01 75 1012.3
20260905034050 73 165 0.0 0.0 0.00 0.01 0.01 75 1012.4
20260905033545 73 165 0.0 0.0 0.00 0.01 0.01 75 1012.3
20260905033047 74 165 0.0 0.0 0.00 0.01 0.01 75 1012.3
20260905032546 74 165 0.0 0.0 0.00 0.01 0.01 75 1012.3
20260905032045 74 165 0.0 0.0 0.00 0.01 0.01 75 1012.4
20260905031546 74 165 0.0 0.0 0.00 0.01 0.01 75 1012.5
20260905031044 74 165 0.0 0.0 0.00 0.01 0.01 75 1012.3
20260905030544 74 165 0.0 0.0 0.00 0.01 0.01 75 1012.3
20260905030044 74 165 0.0 0.0 0.00 0.01 0.01 74 1012.4
20260905025545 74 165 0.0 0.0 0.00 0.01 0.01 74 1012.3